sensor_id;sensor_type;location;lat;lon;timestamp;P1;durP1;ratioP1;P2;durP2;ratioP2
75386;SDS011;63966;47.914;22.266;2023-07-28T00:02:26;7.47;;;3.27;;
75386;SDS011;63966;47.914;22.266;2023-07-28T00:05:29;6.90;;;3.10;;
75386;SDS011;63966;47.914;22.266;2023-07-28T00:08:33;5.63;;;2.80;;
75386;SDS011;63966;47.914;22.266;2023-07-28T00:11:36;10.25;;;3.00;;
75386;SDS011;63966;47.914;22.266;2023-07-28T00:14:39;6.45;;;3.28;;
75386;SDS011;63966;47.914;22.266;2023-07-28T00:17:43;5.37;;;2.90;;
75386;SDS011;63966;47.914;22.266;2023-07-28T00:20:46;5.43;;;3.13;;
75386;SDS011;63966;47.914;22.266;2023-07-28T00:23:50;5.03;;;2.83;;
75386;SDS011;63966;47.914;22.266;2023-07-28T00:26:53;6.95;;;3.10;;
75386;SDS011;63966;47.914;22.266;2023-07-28T00:29:56;6.75;;;2.92;;
75386;SDS011;63966;47.914;22.266;2023-07-28T00:33:00;6.40;;;2.73;;
75386;SDS011;63966;47.914;22.266;2023-07-28T00:36:03;5.50;;;2.97;;
75386;SDS011;63966;47.914;22.266;2023-07-28T00:39:07;6.55;;;3.00;;
75386;SDS011;63966;47.914;22.266;2023-07-28T00:42:10;6.90;;;3.13;;
75386;SDS011;63966;47.914;22.266;2023-07-28T00:45:13;8.05;;;3.00;;
75386;SDS011;63966;47.914;22.266;2023-07-28T00:48:17;5.83;;;2.93;;
75386;SDS011;63966;47.914;22.266;2023-07-28T00:51:22;8.07;;;2.83;;
75386;SDS011;63966;47.914;22.266;2023-07-28T00:54:26;6.05;;;3.30;;
75386;SDS011;63966;47.914;22.266;2023-07-28T00:57:30;5.60;;;3.00;;
75386;SDS011;63966;47.914;22.266;2023-07-28T01:00:33;7.35;;;3.40;;
75386;SDS011;63966;47.914;22.266;2023-07-28T01:03:36;5.33;;;3.03;;
75386;SDS011;63966;47.914;22.266;2023-07-28T01:06:53;7.33;;;3.13;;
75386;SDS011;63966;47.914;22.266;2023-07-28T01:10:08;5.75;;;3.00;;
75386;SDS011;63966;47.914;22.266;2023-07-28T01:13:14;7.30;;;3.55;;
75386;SDS011;63966;47.914;22.266;2023-07-28T01:16:17;5.63;;;2.95;;
75386;SDS011;63966;47.914;22.266;2023-07-28T01:19:21;8.47;;;3.37;;
75386;SDS011;63966;47.914;22.266;2023-07-28T01:26:08;6.78;;;3.15;;
75386;SDS011;63966;47.914;22.266;2023-07-28T01:29:12;6.90;;;3.08;;
75386;SDS011;63966;47.914;22.266;2023-07-28T01:32:18;7.75;;;3.33;;
75386;SDS011;63966;47.914;22.266;2023-07-28T01:35:22;6.73;;;3.23;;
75386;SDS011;63966;47.914;22.266;2023-07-28T01:38:26;5.93;;;3.10;;
75386;SDS011;63966;47.914;22.266;2023-07-28T01:41:30;6.40;;;3.28;;
75386;SDS011;63966;47.914;22.266;2023-07-28T01:44:33;6.82;;;3.10;;
75386;SDS011;63966;47.914;22.266;2023-07-28T01:47:37;7.32;;;2.90;;
75386;SDS011;63966;47.914;22.266;2023-07-28T01:50:40;5.70;;;3.03;;
75386;SDS011;63966;47.914;22.266;2023-07-28T01:53:43;8.00;;;3.17;;
75386;SDS011;63966;47.914;22.266;2023-07-28T01:56:47;6.32;;;3.15;;
75386;SDS011;63966;47.914;22.266;2023-07-28T01:59:50;6.68;;;3.33;;
75386;SDS011;63966;47.914;22.266;2023-07-28T02:02:53;5.82;;;3.20;;
75386;SDS011;63966;47.914;22.266;2023-07-28T02:05:57;6.27;;;3.20;;
75386;SDS011;63966;47.914;22.266;2023-07-28T02:09:01;8.03;;;3.40;;
75386;SDS011;63966;47.914;22.266;2023-07-28T02:12:05;6.45;;;3.40;;
75386;SDS011;63966;47.914;22.266;2023-07-28T02:15:09;6.97;;;3.33;;
75386;SDS011;63966;47.914;22.266;2023-07-28T02:18:12;6.72;;;3.22;;
75386;SDS011;63966;47.914;22.266;2023-07-28T02:21:16;7.47;;;3.30;;
75386;SDS011;63966;47.914;22.266;2023-07-28T02:24:19;6.60;;;3.47;;
75386;SDS011;63966;47.914;22.266;2023-07-28T02:27:22;6.78;;;3.92;;
75386;SDS011;63966;47.914;22.266;2023-07-28T02:30:26;5.75;;;3.63;;
75386;SDS011;63966;47.914;22.266;2023-07-28T02:33:30;7.18;;;3.72;;
75386;SDS011;63966;47.914;22.266;2023-07-28T02:36:37;9.30;;;4.03;;
75386;SDS011;63966;47.914;22.266;2023-07-28T02:39:41;7.03;;;3.67;;
75386;SDS011;63966;47.914;22.266;2023-07-28T02:42:44;7.43;;;4.00;;
75386;SDS011;63966;47.914;22.266;2023-07-28T02:45:48;7.35;;;4.00;;
75386;SDS011;63966;47.914;22.266;2023-07-28T02:48:57;6.93;;;4.25;;
75386;SDS011;63966;47.914;22.266;2023-07-28T02:52:00;8.07;;;3.63;;
75386;SDS011;63966;47.914;22.266;2023-07-28T02:55:05;7.13;;;3.90;;
75386;SDS011;63966;47.914;22.266;2023-07-28T02:58:09;6.82;;;3.60;;
75386;SDS011;63966;47.914;22.266;2023-07-28T03:01:13;5.80;;;3.35;;
75386;SDS011;63966;47.914;22.266;2023-07-28T03:04:16;8.10;;;3.70;;
75386;SDS011;63966;47.914;22.266;2023-07-28T03:07:54;6.90;;;4.00;;
75386;SDS011;63966;47.914;22.266;2023-07-28T03:10:58;6.40;;;3.67;;
75386;SDS011;63966;47.914;22.266;2023-07-28T03:14:04;8.75;;;3.55;;
75386;SDS011;63966;47.914;22.266;2023-07-28T03:17:07;8.10;;;4.10;;
75386;SDS011;63966;47.914;22.266;2023-07-28T03:20:11;8.18;;;4.20;;
75386;SDS011;63966;47.914;22.266;2023-07-28T03:23:14;8.63;;;3.37;;
75386;SDS011;63966;47.914;22.266;2023-07-28T03:26:18;7.13;;;3.50;;
75386;SDS011;63966;47.914;22.266;2023-07-28T03:29:21;9.02;;;3.58;;
75386;SDS011;63966;47.914;22.266;2023-07-28T03:32:25;6.20;;;3.53;;
75386;SDS011;63966;47.914;22.266;2023-07-28T03:35:28;6.18;;;3.00;;
75386;SDS011;63966;47.914;22.266;2023-07-28T03:38:39;7.10;;;3.33;;
75386;SDS011;63966;47.914;22.266;2023-07-28T03:41:42;7.30;;;2.93;;
75386;SDS011;63966;47.914;22.266;2023-07-28T03:44:46;5.90;;;3.13;;
75386;SDS011;63966;47.914;22.266;2023-07-28T03:47:49;5.55;;;3.03;;
75386;SDS011;63966;47.914;22.266;2023-07-28T03:50:55;4.90;;;2.83;;
75386;SDS011;63966;47.914;22.266;2023-07-28T03:53:59;6.47;;;2.87;;
75386;SDS011;63966;47.914;22.266;2023-07-28T03:57:02;6.93;;;2.67;;
75386;SDS011;63966;47.914;22.266;2023-07-28T04:00:06;5.45;;;3.10;;
75386;SDS011;63966;47.914;22.266;2023-07-28T04:03:16;5.30;;;2.60;;
75386;SDS011;63966;47.914;22.266;2023-07-28T04:06:19;5.47;;;2.60;;
75386;SDS011;63966;47.914;22.266;2023-07-28T04:09:43;6.07;;;3.07;;
75386;SDS011;63966;47.914;22.266;2023-07-28T04:12:46;6.90;;;2.77;;
75386;SDS011;63966;47.914;22.266;2023-07-28T04:15:50;5.88;;;3.10;;
75386;SDS011;63966;47.914;22.266;2023-07-28T04:18:53;5.70;;;2.70;;
75386;SDS011;63966;47.914;22.266;2023-07-28T04:21:57;6.32;;;2.65;;
75386;SDS011;63966;47.914;22.266;2023-07-28T04:25:01;6.57;;;3.33;;
75386;SDS011;63966;47.914;22.266;2023-07-28T04:28:05;5.40;;;3.17;;
75386;SDS011;63966;47.914;22.266;2023-07-28T04:31:09;7.20;;;2.97;;
75386;SDS011;63966;47.914;22.266;2023-07-28T04:34:27;6.00;;;3.28;;
75386;SDS011;63966;47.914;22.266;2023-07-28T04:37:41;5.50;;;2.83;;
75386;SDS011;63966;47.914;22.266;2023-07-28T04:40:46;5.00;;;2.80;;
75386;SDS011;63966;47.914;22.266;2023-07-28T04:43:53;6.10;;;3.13;;
75386;SDS011;63966;47.914;22.266;2023-07-28T04:46:59;6.55;;;3.28;;
75386;SDS011;63966;47.914;22.266;2023-07-28T04:50:03;5.93;;;3.22;;
75386;SDS011;63966;47.914;22.266;2023-07-28T04:53:25;6.70;;;3.25;;
75386;SDS011;63966;47.914;22.266;2023-07-28T04:56:51;5.53;;;3.10;;
75386;SDS011;63966;47.914;22.266;2023-07-28T05:00:02;5.63;;;3.40;;
75386;SDS011;63966;47.914;22.266;2023-07-28T05:03:06;7.75;;;2.95;;
75386;SDS011;63966;47.914;22.266;2023-07-28T05:06:14;6.50;;;2.95;;
75386;SDS011;63966;47.914;22.266;2023-07-28T05:09:18;5.07;;;3.00;;
75386;SDS011;63966;47.914;22.266;2023-07-28T05:12:21;5.63;;;3.23;;
75386;SDS011;63966;47.914;22.266;2023-07-28T05:15:25;7.47;;;3.43;;
75386;SDS011;63966;47.914;22.266;2023-07-28T05:18:28;6.15;;;2.90;;
75386;SDS011;63966;47.914;22.266;2023-07-28T05:21:51;4.28;;;2.60;;
75386;SDS011;63966;47.914;22.266;2023-07-28T05:25:00;5.15;;;2.70;;
75386;SDS011;63966;47.914;22.266;2023-07-28T05:28:07;12.20;;;3.50;;
75386;SDS011;63966;47.914;22.266;2023-07-28T05:31:13;5.83;;;3.13;;
75386;SDS011;63966;47.914;22.266;2023-07-28T05:34:18;4.78;;;2.78;;
75386;SDS011;63966;47.914;22.266;2023-07-28T05:37:21;7.65;;;2.90;;
75386;SDS011;63966;47.914;22.266;2023-07-28T05:40:25;6.32;;;2.90;;
75386;SDS011;63966;47.914;22.266;2023-07-28T05:43:29;7.90;;;2.90;;
75386;SDS011;63966;47.914;22.266;2023-07-28T05:46:33;5.43;;;2.50;;
75386;SDS011;63966;47.914;22.266;2023-07-28T05:49:37;6.25;;;2.45;;
75386;SDS011;63966;47.914;22.266;2023-07-28T05:52:59;5.88;;;2.67;;
75386;SDS011;63966;47.914;22.266;2023-07-28T05:56:03;4.97;;;2.22;;
75386;SDS011;63966;47.914;22.266;2023-07-28T05:59:07;4.63;;;2.55;;
75386;SDS011;63966;47.914;22.266;2023-07-28T06:02:11;4.57;;;2.50;;
75386;SDS011;63966;47.914;22.266;2023-07-28T06:05:34;5.82;;;2.50;;
75386;SDS011;63966;47.914;22.266;2023-07-28T06:08:37;6.78;;;2.63;;
75386;SDS011;63966;47.914;22.266;2023-07-28T06:11:40;4.63;;;2.42;;
75386;SDS011;63966;47.914;22.266;2023-07-28T06:14:44;5.05;;;2.50;;
75386;SDS011;63966;47.914;22.266;2023-07-28T06:17:48;6.13;;;2.63;;
75386;SDS011;63966;47.914;22.266;2023-07-28T06:20:52;5.43;;;2.72;;
75386;SDS011;63966;47.914;22.266;2023-07-28T06:23:56;4.47;;;2.72;;
75386;SDS011;63966;47.914;22.266;2023-07-28T06:26:59;5.97;;;2.88;;
75386;SDS011;63966;47.914;22.266;2023-07-28T06:30:05;6.80;;;2.92;;
75386;SDS011;63966;47.914;22.266;2023-07-28T06:33:09;8.30;;;3.10;;
75386;SDS011;63966;47.914;22.266;2023-07-28T06:36:13;4.40;;;2.58;;
75386;SDS011;63966;47.914;22.266;2023-07-28T06:39:16;4.95;;;2.70;;
75386;SDS011;63966;47.914;22.266;2023-07-28T06:42:20;4.90;;;2.53;;
75386;SDS011;63966;47.914;22.266;2023-07-28T06:45:31;5.03;;;2.60;;
75386;SDS011;63966;47.914;22.266;2023-07-28T06:48:34;6.20;;;2.40;;
75386;SDS011;63966;47.914;22.266;2023-07-28T06:51:37;4.55;;;2.50;;
75386;SDS011;63966;47.914;22.266;2023-07-28T06:54:41;6.45;;;2.60;;
75386;SDS011;63966;47.914;22.266;2023-07-28T06:57:44;5.70;;;2.47;;
75386;SDS011;63966;47.914;22.266;2023-07-28T07:00:48;4.93;;;2.40;;
75386;SDS011;63966;47.914;22.266;2023-07-28T07:03:51;4.63;;;2.03;;
75386;SDS011;63966;47.914;22.266;2023-07-28T07:06:55;4.70;;;2.20;;
75386;SDS011;63966;47.914;22.266;2023-07-28T07:09:58;4.20;;;2.20;;
75386;SDS011;63966;47.914;22.266;2023-07-28T07:13:02;4.45;;;2.25;;
75386;SDS011;63966;47.914;22.266;2023-07-28T07:16:05;4.90;;;2.17;;
75386;SDS011;63966;47.914;22.266;2023-07-28T07:19:27;5.73;;;2.20;;
75386;SDS011;63966;47.914;22.266;2023-07-28T07:22:31;5.40;;;2.33;;
75386;SDS011;63966;47.914;22.266;2023-07-28T07:25:34;8.50;;;2.15;;
75386;SDS011;63966;47.914;22.266;2023-07-28T07:28:38;5.78;;;2.15;;
75386;SDS011;63966;47.914;22.266;2023-07-28T07:31:42;4.93;;;2.47;;
75386;SDS011;63966;47.914;22.266;2023-07-28T07:34:45;4.90;;;1.97;;
75386;SDS011;63966;47.914;22.266;2023-07-28T07:37:49;4.90;;;2.28;;
75386;SDS011;63966;47.914;22.266;2023-07-28T07:40:52;4.88;;;2.15;;
75386;SDS011;63966;47.914;22.266;2023-07-28T07:43:55;6.38;;;2.17;;
75386;SDS011;63966;47.914;22.266;2023-07-28T07:47:00;7.40;;;2.17;;
75386;SDS011;63966;47.914;22.266;2023-07-28T07:50:13;4.00;;;1.87;;
75386;SDS011;63966;47.914;22.266;2023-07-28T07:53:16;4.28;;;2.20;;
75386;SDS011;63966;47.914;22.266;2023-07-28T07:56:20;6.28;;;2.50;;
75386;SDS011;63966;47.914;22.266;2023-07-28T07:59:23;5.15;;;2.10;;
75386;SDS011;63966;47.914;22.266;2023-07-28T08:02:30;4.50;;;2.03;;
75386;SDS011;63966;47.914;22.266;2023-07-28T08:05:33;4.40;;;2.20;;
75386;SDS011;63966;47.914;22.266;2023-07-28T08:08:37;4.22;;;1.95;;
75386;SDS011;63966;47.914;22.266;2023-07-28T08:11:44;5.15;;;2.28;;
75386;SDS011;63966;47.914;22.266;2023-07-28T08:14:48;5.80;;;2.10;;
75386;SDS011;63966;47.914;22.266;2023-07-28T08:17:51;5.27;;;2.30;;
75386;SDS011;63966;47.914;22.266;2023-07-28T08:20:55;4.53;;;2.27;;
75386;SDS011;63966;47.914;22.266;2023-07-28T08:23:58;6.20;;;2.30;;
75386;SDS011;63966;47.914;22.266;2023-07-28T08:27:01;6.50;;;2.33;;
75386;SDS011;63966;47.914;22.266;2023-07-28T08:30:05;6.15;;;2.40;;
75386;SDS011;63966;47.914;22.266;2023-07-28T08:33:09;4.17;;;2.10;;
75386;SDS011;63966;47.914;22.266;2023-07-28T08:36:13;4.23;;;2.17;;
75386;SDS011;63966;47.914;22.266;2023-07-28T08:39:17;5.35;;;2.42;;
75386;SDS011;63966;47.914;22.266;2023-07-28T08:42:21;4.53;;;2.28;;
75386;SDS011;63966;47.914;22.266;2023-07-28T08:45:27;6.78;;;2.40;;
75386;SDS011;63966;47.914;22.266;2023-07-28T08:48:31;5.13;;;2.40;;
75386;SDS011;63966;47.914;22.266;2023-07-28T08:51:34;5.30;;;2.00;;
75386;SDS011;63966;47.914;22.266;2023-07-28T08:54:42;6.55;;;2.22;;
75386;SDS011;63966;47.914;22.266;2023-07-28T08:57:46;4.32;;;2.30;;
75386;SDS011;63966;47.914;22.266;2023-07-28T09:00:52;5.57;;;2.40;;
75386;SDS011;63966;47.914;22.266;2023-07-28T09:03:56;4.27;;;2.10;;
75386;SDS011;63966;47.914;22.266;2023-07-28T09:07:00;5.33;;;2.30;;
75386;SDS011;63966;47.914;22.266;2023-07-28T09:10:08;5.63;;;2.28;;
75386;SDS011;63966;47.914;22.266;2023-07-28T09:13:11;8.52;;;2.63;;
75386;SDS011;63966;47.914;22.266;2023-07-28T09:16:19;5.03;;;2.22;;
75386;SDS011;63966;47.914;22.266;2023-07-28T09:19:23;4.15;;;2.42;;
75386;SDS011;63966;47.914;22.266;2023-07-28T09:22:26;7.53;;;2.30;;
75386;SDS011;63966;47.914;22.266;2023-07-28T09:25:33;4.88;;;2.10;;
75386;SDS011;63966;47.914;22.266;2023-07-28T09:28:38;4.13;;;2.20;;
75386;SDS011;63966;47.914;22.266;2023-07-28T09:31:46;4.85;;;2.05;;
75386;SDS011;63966;47.914;22.266;2023-07-28T09:34:51;4.47;;;2.03;;
75386;SDS011;63966;47.914;22.266;2023-07-28T09:38:10;4.10;;;2.10;;
75386;SDS011;63966;47.914;22.266;2023-07-28T09:41:15;5.38;;;2.13;;
75386;SDS011;63966;47.914;22.266;2023-07-28T09:44:19;4.07;;;1.95;;
75386;SDS011;63966;47.914;22.266;2023-07-28T09:47:23;4.63;;;2.10;;
75386;SDS011;63966;47.914;22.266;2023-07-28T09:50:29;4.35;;;2.10;;
75386;SDS011;63966;47.914;22.266;2023-07-28T09:53:36;6.47;;;2.30;;
75386;SDS011;63966;47.914;22.266;2023-07-28T09:56:48;5.82;;;2.30;;
75386;SDS011;63966;47.914;22.266;2023-07-28T09:59:51;5.00;;;2.20;;
75386;SDS011;63966;47.914;22.266;2023-07-28T10:02:57;5.15;;;2.22;;
75386;SDS011;63966;47.914;22.266;2023-07-28T10:06:01;4.95;;;2.10;;
75386;SDS011;63966;47.914;22.266;2023-07-28T10:09:06;6.00;;;2.40;;
75386;SDS011;63966;47.914;22.266;2023-07-28T10:12:17;7.22;;;1.95;;
75386;SDS011;63966;47.914;22.266;2023-07-28T10:15:26;3.97;;;1.98;;
75386;SDS011;63966;47.914;22.266;2023-07-28T10:18:32;5.32;;;1.88;;
75386;SDS011;63966;47.914;22.266;2023-07-28T10:21:39;5.22;;;2.20;;
75386;SDS011;63966;47.914;22.266;2023-07-28T10:24:56;3.97;;;1.90;;
75386;SDS011;63966;47.914;22.266;2023-07-28T10:28:03;5.80;;;2.05;;
75386;SDS011;63966;47.914;22.266;2023-07-28T10:31:09;4.68;;;2.05;;
75386;SDS011;63966;47.914;22.266;2023-07-28T10:34:15;4.05;;;2.20;;
75386;SDS011;63966;47.914;22.266;2023-07-28T10:37:22;4.78;;;2.53;;
75386;SDS011;63966;47.914;22.266;2023-07-28T10:43:37;5.38;;;2.00;;
75386;SDS011;63966;47.914;22.266;2023-07-28T10:46:41;4.57;;;2.08;;
75386;SDS011;63966;47.914;22.266;2023-07-28T10:49:46;3.67;;;1.80;;
75386;SDS011;63966;47.914;22.266;2023-07-28T10:52:50;5.15;;;1.90;;
75386;SDS011;63966;47.914;22.266;2023-07-28T10:55:54;3.60;;;1.90;;
75386;SDS011;63966;47.914;22.266;2023-07-28T10:58:59;4.95;;;1.85;;
75386;SDS011;63966;47.914;22.266;2023-07-28T11:02:03;4.25;;;1.88;;
75386;SDS011;63966;47.914;22.266;2023-07-28T11:05:09;5.32;;;1.92;;
75386;SDS011;63966;47.914;22.266;2023-07-28T11:08:17;4.28;;;1.90;;
75386;SDS011;63966;47.914;22.266;2023-07-28T11:11:20;4.70;;;1.83;;
75386;SDS011;63966;47.914;22.266;2023-07-28T11:14:24;5.10;;;2.08;;
75386;SDS011;63966;47.914;22.266;2023-07-28T11:17:27;3.90;;;2.10;;
75386;SDS011;63966;47.914;22.266;2023-07-28T11:20:32;4.55;;;2.25;;
75386;SDS011;63966;47.914;22.266;2023-07-28T11:23:36;5.25;;;2.10;;
75386;SDS011;63966;47.914;22.266;2023-07-28T11:26:41;5.83;;;2.13;;
75386;SDS011;63966;47.914;22.266;2023-07-28T11:29:45;6.10;;;1.90;;
75386;SDS011;63966;47.914;22.266;2023-07-28T11:32:51;4.40;;;2.15;;
75386;SDS011;63966;47.914;22.266;2023-07-28T11:35:55;3.70;;;2.05;;
75386;SDS011;63966;47.914;22.266;2023-07-28T11:38:59;3.83;;;1.77;;
75386;SDS011;63966;47.914;22.266;2023-07-28T11:42:07;3.77;;;2.10;;
75386;SDS011;63966;47.914;22.266;2023-07-28T11:45:13;5.60;;;2.22;;
75386;SDS011;63966;47.914;22.266;2023-07-28T11:48:18;5.18;;;2.25;;
75386;SDS011;63966;47.914;22.266;2023-07-28T11:51:23;7.25;;;2.60;;
75386;SDS011;63966;47.914;22.266;2023-07-28T11:54:26;4.55;;;1.90;;
75386;SDS011;63966;47.914;22.266;2023-07-28T11:57:31;4.30;;;2.07;;
75386;SDS011;63966;47.914;22.266;2023-07-28T12:00:36;5.15;;;1.90;;
75386;SDS011;63966;47.914;22.266;2023-07-28T12:03:45;8.23;;;2.25;;
75386;SDS011;63966;47.914;22.266;2023-07-28T12:10:34;5.53;;;2.40;;
75386;SDS011;63966;47.914;22.266;2023-07-28T12:13:50;4.07;;;1.90;;
75386;SDS011;63966;47.914;22.266;2023-07-28T12:16:56;4.05;;;2.03;;
75386;SDS011;63966;47.914;22.266;2023-07-28T12:20:03;5.15;;;2.05;;
75386;SDS011;63966;47.914;22.266;2023-07-28T12:23:19;6.55;;;1.98;;
75386;SDS011;63966;47.914;22.266;2023-07-28T12:26:26;5.70;;;2.03;;
75386;SDS011;63966;47.914;22.266;2023-07-28T12:29:30;4.30;;;2.13;;
75386;SDS011;63966;47.914;22.266;2023-07-28T12:32:33;4.88;;;2.28;;
75386;SDS011;63966;47.914;22.266;2023-07-28T12:35:39;3.67;;;2.03;;
75386;SDS011;63966;47.914;22.266;2023-07-28T12:38:46;4.85;;;1.88;;
75386;SDS011;63966;47.914;22.266;2023-07-28T12:41:49;4.45;;;1.92;;
75386;SDS011;63966;47.914;22.266;2023-07-28T12:44:56;5.47;;;2.20;;
75386;SDS011;63966;47.914;22.266;2023-07-28T12:48:02;5.60;;;2.10;;
75386;SDS011;63966;47.914;22.266;2023-07-28T12:51:06;6.45;;;2.03;;
75386;SDS011;63966;47.914;22.266;2023-07-28T12:54:09;3.88;;;1.80;;
75386;SDS011;63966;47.914;22.266;2023-07-28T12:57:13;6.55;;;2.00;;
75386;SDS011;63966;47.914;22.266;2023-07-28T13:00:16;4.80;;;1.80;;
75386;SDS011;63966;47.914;22.266;2023-07-28T13:03:23;4.35;;;1.67;;
75386;SDS011;63966;47.914;22.266;2023-07-28T13:06:26;3.97;;;1.80;;
75386;SDS011;63966;47.914;22.266;2023-07-28T13:09:29;3.95;;;1.83;;
75386;SDS011;63966;47.914;22.266;2023-07-28T13:12:36;6.13;;;2.10;;
75386;SDS011;63966;47.914;22.266;2023-07-28T13:15:42;3.83;;;1.80;;
75386;SDS011;63966;47.914;22.266;2023-07-28T13:18:47;4.80;;;1.90;;
75386;SDS011;63966;47.914;22.266;2023-07-28T13:21:50;6.53;;;2.20;;
75386;SDS011;63966;47.914;22.266;2023-07-28T13:24:54;5.38;;;2.03;;
75386;SDS011;63966;47.914;22.266;2023-07-28T13:27:57;3.70;;;1.80;;
75386;SDS011;63966;47.914;22.266;2023-07-28T13:31:01;5.57;;;2.00;;
75386;SDS011;63966;47.914;22.266;2023-07-28T13:34:05;5.90;;;2.05;;
75386;SDS011;63966;47.914;22.266;2023-07-28T13:37:09;4.75;;;1.90;;
75386;SDS011;63966;47.914;22.266;2023-07-28T13:40:12;4.38;;;2.13;;
75386;SDS011;63966;47.914;22.266;2023-07-28T13:43:16;6.40;;;2.00;;
75386;SDS011;63966;47.914;22.266;2023-07-28T13:46:19;4.33;;;2.00;;
75386;SDS011;63966;47.914;22.266;2023-07-28T13:49:23;8.73;;;2.28;;
75386;SDS011;63966;47.914;22.266;2023-07-28T13:52:26;4.05;;;1.80;;
75386;SDS011;63966;47.914;22.266;2023-07-28T13:55:30;7.43;;;2.10;;
75386;SDS011;63966;47.914;22.266;2023-07-28T13:58:36;4.75;;;2.03;;
75386;SDS011;63966;47.914;22.266;2023-07-28T14:01:40;4.43;;;1.87;;
75386;SDS011;63966;47.914;22.266;2023-07-28T14:04:43;3.67;;;1.80;;
75386;SDS011;63966;47.914;22.266;2023-07-28T14:07:47;4.35;;;2.05;;
75386;SDS011;63966;47.914;22.266;2023-07-28T14:10:51;3.70;;;2.00;;
75386;SDS011;63966;47.914;22.266;2023-07-28T14:13:54;4.10;;;2.00;;
75386;SDS011;63966;47.914;22.266;2023-07-28T14:16:58;5.63;;;2.27;;
75386;SDS011;63966;47.914;22.266;2023-07-28T14:20:01;4.20;;;2.03;;
75386;SDS011;63966;47.914;22.266;2023-07-28T14:23:24;3.92;;;1.83;;
75386;SDS011;63966;47.914;22.266;2023-07-28T14:26:29;3.97;;;2.10;;
75386;SDS011;63966;47.914;22.266;2023-07-28T14:29:32;4.07;;;1.80;;
75386;SDS011;63966;47.914;22.266;2023-07-28T14:32:36;4.33;;;2.03;;
75386;SDS011;63966;47.914;22.266;2023-07-28T14:35:39;4.38;;;2.10;;
75386;SDS011;63966;47.914;22.266;2023-07-28T14:38:43;4.30;;;2.10;;
75386;SDS011;63966;47.914;22.266;2023-07-28T14:41:46;4.95;;;1.98;;
75386;SDS011;63966;47.914;22.266;2023-07-28T14:44:50;5.82;;;1.88;;
75386;SDS011;63966;47.914;22.266;2023-07-28T14:47:53;4.80;;;2.20;;
75386;SDS011;63966;47.914;22.266;2023-07-28T14:50:56;4.65;;;1.90;;
75386;SDS011;63966;47.914;22.266;2023-07-28T14:54:00;4.88;;;1.90;;
75386;SDS011;63966;47.914;22.266;2023-07-28T14:57:03;6.18;;;1.92;;
75386;SDS011;63966;47.914;22.266;2023-07-28T15:00:15;4.18;;;2.20;;
75386;SDS011;63966;47.914;22.266;2023-07-28T15:03:18;5.50;;;2.17;;
75386;SDS011;63966;47.914;22.266;2023-07-28T15:06:22;4.97;;;2.03;;
75386;SDS011;63966;47.914;22.266;2023-07-28T15:09:26;5.60;;;2.45;;
75386;SDS011;63966;47.914;22.266;2023-07-28T15:12:30;4.22;;;2.28;;
75386;SDS011;63966;47.914;22.266;2023-07-28T15:15:33;4.45;;;2.05;;
75386;SDS011;63966;47.914;22.266;2023-07-28T15:18:37;5.33;;;2.00;;
75386;SDS011;63966;47.914;22.266;2023-07-28T15:21:41;4.03;;;1.92;;
75386;SDS011;63966;47.914;22.266;2023-07-28T15:24:44;3.97;;;1.90;;
75386;SDS011;63966;47.914;22.266;2023-07-28T15:27:48;5.97;;;2.20;;
75386;SDS011;63966;47.914;22.266;2023-07-28T15:30:51;5.90;;;2.10;;
75386;SDS011;63966;47.914;22.266;2023-07-28T15:33:57;4.80;;;2.10;;
75386;SDS011;63966;47.914;22.266;2023-07-28T15:37:01;3.63;;;1.83;;
75386;SDS011;63966;47.914;22.266;2023-07-28T15:40:05;4.43;;;1.88;;
75386;SDS011;63966;47.914;22.266;2023-07-28T15:43:09;5.22;;;2.00;;
75386;SDS011;63966;47.914;22.266;2023-07-28T15:46:13;5.15;;;2.30;;
75386;SDS011;63966;47.914;22.266;2023-07-28T15:49:16;5.00;;;2.20;;
75386;SDS011;63966;47.914;22.266;2023-07-28T15:52:20;3.67;;;1.92;;
75386;SDS011;63966;47.914;22.266;2023-07-28T15:55:24;6.15;;;2.25;;
75386;SDS011;63966;47.914;22.266;2023-07-28T15:58:27;4.75;;;2.00;;
75386;SDS011;63966;47.914;22.266;2023-07-28T16:01:31;6.10;;;2.80;;
75386;SDS011;63966;47.914;22.266;2023-07-28T16:04:34;7.50;;;2.50;;
75386;SDS011;63966;47.914;22.266;2023-07-28T16:07:39;4.78;;;2.35;;
75386;SDS011;63966;47.914;22.266;2023-07-28T16:10:43;5.70;;;2.40;;
75386;SDS011;63966;47.914;22.266;2023-07-28T16:13:46;5.53;;;2.35;;
75386;SDS011;63966;47.914;22.266;2023-07-28T16:16:50;7.50;;;2.45;;
75386;SDS011;63966;47.914;22.266;2023-07-28T16:19:53;6.20;;;2.40;;
75386;SDS011;63966;47.914;22.266;2023-07-28T16:22:56;6.88;;;2.35;;
75386;SDS011;63966;47.914;22.266;2023-07-28T16:26:00;5.75;;;2.20;;
75386;SDS011;63966;47.914;22.266;2023-07-28T16:29:03;5.30;;;2.40;;
75386;SDS011;63966;47.914;22.266;2023-07-28T16:32:07;5.13;;;2.40;;
75386;SDS011;63966;47.914;22.266;2023-07-28T16:35:13;5.93;;;2.30;;
75386;SDS011;63966;47.914;22.266;2023-07-28T16:38:16;6.25;;;2.20;;
75386;SDS011;63966;47.914;22.266;2023-07-28T16:41:20;4.60;;;2.22;;
75386;SDS011;63966;47.914;22.266;2023-07-28T16:44:23;5.28;;;2.17;;
75386;SDS011;63966;47.914;22.266;2023-07-28T16:47:26;6.20;;;2.30;;
75386;SDS011;63966;47.914;22.266;2023-07-28T16:50:31;6.10;;;2.23;;
75386;SDS011;63966;47.914;22.266;2023-07-28T16:53:34;5.53;;;2.42;;
75386;SDS011;63966;47.914;22.266;2023-07-28T16:56:38;5.60;;;2.28;;
75386;SDS011;63966;47.914;22.266;2023-07-28T16:59:43;7.65;;;2.50;;
75386;SDS011;63966;47.914;22.266;2023-07-28T17:02:47;9.25;;;2.97;;
75386;SDS011;63966;47.914;22.266;2023-07-28T17:05:51;6.23;;;2.57;;
75386;SDS011;63966;47.914;22.266;2023-07-28T17:08:54;5.78;;;2.20;;
75386;SDS011;63966;47.914;22.266;2023-07-28T17:11:58;3.90;;;1.80;;
75386;SDS011;63966;47.914;22.266;2023-07-28T17:15:01;5.75;;;2.17;;
75386;SDS011;63966;47.914;22.266;2023-07-28T17:18:05;5.05;;;2.25;;
75386;SDS011;63966;47.914;22.266;2023-07-28T17:21:08;4.90;;;2.00;;
75386;SDS011;63966;47.914;22.266;2023-07-28T17:24:12;4.88;;;2.10;;
75386;SDS011;63966;47.914;22.266;2023-07-28T17:27:15;4.93;;;2.38;;
75386;SDS011;63966;47.914;22.266;2023-07-28T17:30:19;7.05;;;2.30;;
75386;SDS011;63966;47.914;22.266;2023-07-28T17:33:22;4.35;;;2.17;;
75386;SDS011;63966;47.914;22.266;2023-07-28T17:36:26;3.83;;;2.10;;
75386;SDS011;63966;47.914;22.266;2023-07-28T17:39:29;4.35;;;2.10;;
75386;SDS011;63966;47.914;22.266;2023-07-28T17:42:33;4.47;;;2.08;;
75386;SDS011;63966;47.914;22.266;2023-07-28T17:45:36;5.38;;;2.50;;
75386;SDS011;63966;47.914;22.266;2023-07-28T17:48:39;5.95;;;2.20;;
75386;SDS011;63966;47.914;22.266;2023-07-28T17:51:43;6.27;;;2.20;;
75386;SDS011;63966;47.914;22.266;2023-07-28T17:54:46;5.60;;;2.30;;
75386;SDS011;63966;47.914;22.266;2023-07-28T17:57:50;4.82;;;2.35;;
75386;SDS011;63966;47.914;22.266;2023-07-28T18:00:53;7.95;;;2.50;;
75386;SDS011;63966;47.914;22.266;2023-07-28T18:03:57;6.67;;;2.53;;
75386;SDS011;63966;47.914;22.266;2023-07-28T18:07:00;5.20;;;2.60;;
75386;SDS011;63966;47.914;22.266;2023-07-28T18:10:04;6.47;;;2.70;;
75386;SDS011;63966;47.914;22.266;2023-07-28T18:13:08;4.85;;;2.50;;
75386;SDS011;63966;47.914;22.266;2023-07-28T18:16:12;6.72;;;2.28;;
75386;SDS011;63966;47.914;22.266;2023-07-28T18:19:16;5.03;;;2.55;;
75386;SDS011;63966;47.914;22.266;2023-07-28T18:22:20;5.13;;;2.60;;
75386;SDS011;63966;47.914;22.266;2023-07-28T18:25:23;5.55;;;2.50;;
75386;SDS011;63966;47.914;22.266;2023-07-28T18:28:27;5.53;;;2.67;;